Date,TemperatureHighF,TemperatureAvgF,TemperatureLowF,DewpointHighF,DewpointAvgF,DewpointLowF,HumidityHigh,HumidityAvg,HumidityLow,PressureMaxIn,PressureMinIn,WindSpeedMaxMPH,WindSpeedAvgMPH,GustSpeedMaxMPH,PrecipitationSumIn
2013-1-1,78.4,66.0,54.7,60.5,56.5,52.2,92,73,51,30.16,29.98,12,2,17,0.00
2013-1-2,80.6,68.7,58.5,65.9,60.9,55.8,91,77,55,30.01,29.92,9,2,12,0.00
2013-1-3,74.8,64.8,58.1,65.8,61.1,54.8,95,88,73,30.12,29.97,13,3,17,0.07
2013-1-4,58.6,56.9,54.2,57.2,55.1,52.3,95,94,92,30.21,30.08,13,4,15,0.21
2013-1-5,75.2,62.5,54.0,62.4,56.0,50.5,94,80,62,30.23,30.12,10,4,14,0.01
2013-1-6,80.1,68.0,60.2,67.2,62.4,57.7,94,83,65,30.15,29.99,9,3,17,0.09
2013-1-7,69.6,62.7,56.1,60.9,57.1,50.7,93,82,62,30.16,30.06,10,6,15,0.00
2013-1-8,84.4,71.2,63.0,69.7,65.6,60.3,94,83,59,30.17,30.06,8,3,9,0.00
2013-1-9,82.3,72.7,67.0,72.5,68.3,65.5,95,87,68,30.25,30.13,9,3,13,0.07
2013-1-10,82.6,72.5,66.4,69.7,65.5,62.1,96,80,53,30.25,30.16,10,4,15,0.01
2013-1-11,81.9,71.6,62.9,69.2,64.3,60.8,94,79,54,30.20,30.09,9,3,15,0.00
2013-1-12,84.8,71.5,63.0,68.6,63.3,60.7,94,77,46,30.14,30.02,8,3,10,0.00
2013-1-13,83.0,71.1,61.7,66.7,62.9,59.2,94,77,47,30.10,30.00,8,3,13,0.00
2013-1-14,82.7,70.6,61.6,67.8,63.2,59.7,94,79,54,30.13,30.05,10,3,12,0.00
2013-1-15,83.2,71.7,63.3,67.5,64.0,60.6,94,78,51,30.09,29.99,9,3,12,0.00
2013-1-16,84.7,72.2,62.7,65.5,61.6,57.7,93,72,44,30.04,29.94,8,2,9,0.00
2013-1-17,79.3,64.7,52.9,67.9,58.0,43.9,93,79,62,30.03,29.89,17,6,25,0.00
2013-1-18,65.5,54.0,41.3,58.2,46.2,33.7,90,75,68,30.21,30.03,15,6,21,0.04
2013-1-19,73.4,64.0,55.8,60.2,56.4,51.1,86,77,61,30.21,30.07,13,5,19,0.00
2013-1-20,72.8,63.6,59.2,62.5,57.8,53.1,94,82,66,30.11,29.99,10,4,14,0.01
2013-1-21,75.8,65.4,61.5,61.0,56.8,54.4,82,74,58,30.03,29.93,5,2,10,0.00
2013-1-22,62.6,58.0,48.6,54.2,43.5,36.5,78,59,42,30.21,29.99,13,4,17,0.00
2013-1-23,71.3,56.5,47.5,43.4,38.5,32.7,78,54,27,30.30,30.20,9,2,13,0.00
2013-1-24,74.6,59.9,46.2,52.5,46.1,40.7,84,63,39,30.25,30.14,9,2,13,0.00
2013-1-25,77.2,63.6,52.6,57.0,51.1,45.1,95,67,38,30.23,30.10,8,2,10,0.00
2013-1-26,78.5,63.5,50.9,57.1,51.9,45.5,92,68,43,30.20,30.09,6,2,10,0.00
2013-1-27,80.4,66.1,54.5,62.3,57.6,52.2,94,76,45,30.24,30.16,10,3,13,0.00
2013-1-28,77.2,69.8,63.0,64.1,62.2,59.7,90,78,60,30.27,30.17,10,4,14,0.00
2013-1-29,84.2,71.6,63.3,68.1,64.2,61.6,94,79,48,30.19,30.04,10,4,13,0.00
2013-1-30,83.8,73.7,64.8,65.5,63.6,61.3,92,72,50,30.06,29.81,18,7,23,0.00
2013-1-31,70.8,59.2,49.6,64.9,41.7,26.9,91,56,25,30.15,29.82,16,5,21,0.07
2013-2-1,72.0,55.7,44.1,36.4,31.0,24.1,65,42,18,30.28,30.14,9,2,17,0.00
2013-2-2,74.9,58.5,44.4,47.5,39.8,35.8,78,53,28,30.23,30.07,8,2,12,0.00
2013-2-3,71.1,58.1,45.8,49.7,42.4,35.1,86,58,40,30.11,29.98,12,3,17,0.00
2013-2-4,72.9,57.7,44.1,45.7,40.2,30.8,90,57,26,30.07,29.97,7,2,12,0.00
2013-2-5,78.4,62.2,46.0,52.4,47.2,40.5,91,61,37,30.04,29.93,9,2,12,0.00
2013-2-6,80.5,68.6,59.4,63.2,57.4,51.3,84,69,48,30.05,29.96,7,2,10,0.00
2013-2-7,81.8,72.8,66.7,63.3,61.0,57.2,82,68,51,30.02,29.80,12,5,16,0.00
2013-2-8,80.6,70.5,60.3,63.8,58.7,54.4,87,68,44,30.02,29.80,12,5,16,0.00
2013-2-9,74.3,63.1,55.2,56.0,54.2,51.6,90,74,50,30.13,30.00,13,5,17,0.00
2013-2-10,77.1,66.6,57.3,58.8,55.8,52.1,85,70,48,30.20,30.10,12,5,17,0.00
2013-2-11,82.6,70.8,58.9,63.3,59.6,56.0,92,70,47,30.14,29.99,13,4,17,0.00
2013-2-12,85.7,73.5,63.0,67.1,62.9,60.2,92,72,43,30.03,29.85,10,4,15,0.00
2013-2-13,86.2,72.9,64.0,68.5,65.3,57.1,91,79,50,29.90,29.74,16,7,25,0.43
2013-2-14,68.3,62.6,56.5,61.9,57.8,54.2,93,84,71,29.97,29.84,7,2,12,0.26
2013-2-15,71.0,58.9,52.3,57.6,53.0,50.1,95,82,56,30.00,29.87,9,3,12,0.04
2013-2-16,67.3,57.7,48.9,52.3,42.8,24.1,90,61,27,30.04,29.82,16,6,23,0.00
2013-2-17,54.9,45.3,36.9,28.2,18.3,8.2,63,36,17,30.26,30.04,13,4,17,0.00
2013-2-18,67.2,52.4,36.0,45.9,36.9,23.4,85,57,38,30.29,30.13,13,4,15,0.00
2013-2-19,79.3,64.7,48.9,56.3,51.1,43.8,89,64,40,30.15,29.98,13,4,17,0.00
2013-2-20,77.1,65.1,59.2,59.2,55.6,51.9,89,72,53,30.07,29.94,9,4,14,0.00
2013-2-21,82.9,69.8,58.3,64.7,58.3,50.4,86,68,46,30.04,29.92,9,3,12,0.00
2013-2-22,87.5,73.8,63.8,69.1,65.2,59.6,94,77,40,30.02,29.91,13,4,16,0.00
2013-2-23,86.9,76.3,70.0,68.6,66.3,62.8,90,73,48,29.94,29.79,14,6,18,0.00
2013-2-24,75.1,69.8,65.1,70.4,66.5,62.4,93,89,82,29.90,29.79,9,3,13,0.58
2013-2-25,86.2,72.5,63.8,70.4,64.8,59.5,94,79,42,29.86,29.68,9,3,18,0.11
2013-2-26,77.4,71.7,65.9,70.2,66.4,59.5,91,84,71,29.79,29.67,13,6,19,0.05
2013-2-27,82.3,65.9,57.2,61.5,54.7,48.6,89,69,41,29.97,29.79,10,4,16,0.31
2013-2-28,74.7,61.9,51.4,52.3,48.1,41.0,87,63,34,30.00,29.88,14,5,18,0.00
2013-3-1,66.2,56.0,50.0,47.4,39.1,30.0,78,55,31,30.01,29.91,12,5,16,0.00
2013-3-2,58.6,51.2,44.2,37.2,32.8,26.6,63,50,30,30.03,29.95,21,6,28,0.00
2013-3-3,52.3,44.5,38.4,32.0,30.1,27.9,71,57,43,30.16,30.00,17,6,23,0.00
2013-3-4,68.2,51.0,36.1,37.4,30.0,23.5,82,49,23,30.24,30.12,10,2,14,0.00
2013-3-5,77.0,60.6,43.9,56.7,42.5,35.2,88,56,29,30.19,30.01,12,5,16,0.00
2013-3-6,68.2,59.5,49.8,60.1,39.8,27.2,89,52,24,30.14,29.93,17,8,21,0.00
2013-3-7,69.8,53.5,41.5,46.0,37.9,30.8,86,57,36,30.22,30.12,8,3,14,0.00
2013-3-8,74.8,57.8,44.8,48.2,42.8,29.2,92,63,19,30.23,30.12,9,2,13,0.00
2013-3-9,74.4,61.5,49.1,53.0,48.4,44.8,87,65,40,30.23,30.15,10,4,14,0.00
2013-3-10,77.4,65.3,55.3,57.1,53.3,51.1,87,67,42,30.19,30.09,14,4,15,0.00
2013-3-11,77.9,67.2,55.9,60.2,56.1,51.8,87,69,48,30.13,29.92,10,5,16,0.00
2013-3-12,71.7,66.1,57.7,66.2,61.0,54.7,93,84,74,30.02,29.88,13,6,17,0.20
2013-3-13,75.8,61.1,52.2,54.7,41.3,29.3,90,54,20,30.17,30.02,12,4,17,0.00
2013-3-14,67.2,55.7,47.7,43.5,34.0,25.7,72,46,22,30.27,30.15,13,5,17,0.00
2013-3-15,76.6,57.8,43.0,43.9,37.9,29.6,88,53,23,30.29,30.14,12,2,13,0.00
2013-3-16,81.8,64.1,48.6,47.8,42.9,39.9,84,51,25,30.19,30.04,8,3,13,0.00
2013-3-17,77.8,65.5,48.7,57.9,50.3,41.1,85,60,42,30.14,30.00,10,3,15,0.00
2013-3-18,79.1,71.3,64.4,64.6,61.1,57.3,84,71,57,30.07,29.91,10,5,14,0.00
2013-3-19,89.5,73.7,64.2,63.7,60.7,56.3,92,67,35,30.02,29.88,8,3,12,0.00
2013-3-20,76.3,68.4,59.7,66.3,61.4,55.5,90,79,64,29.97,29.78,14,4,20,0.46
2013-3-21,70.2,60.2,51.6,55.8,41.1,28.1,92,55,24,29.97,29.86,10,4,16,0.00
2013-3-22,79.7,61.7,48.4,59.8,48.9,41.7,90,66,34,30.02,29.90,9,3,17,0.10
2013-3-23,85.3,72.9,62.8,72.0,65.2,59.8,94,78,53,29.99,29.75,14,4,20,0.03
2013-3-24,81.0,72.4,64.6,71.4,67.4,61.3,93,85,68,29.84,29.62,16,7,21,0.84
2013-3-25,72.0,64.6,55.6,66.6,44.2,29.9,91,52,22,30.02,29.71,13,7,17,0.00
2013-3-26,59.7,52.8,46.4,40.0,28.2,19.2,61,40,22,30.22,30.01,16,7,24,0.00
2013-3-27,62.4,51.2,42.1,41.1,31.2,25.5,75,49,25,30.29,30.19,12,4,17,0.00
2013-3-28,72.5,55.9,41.6,42.3,36.9,28.7,83,54,22,30.29,30.17,9,3,13,0.00
2013-3-29,76.0,61.3,48.6,47.2,39.8,32.2,83,51,21,30.32,30.18,9,2,12,0.00
2013-3-30,79.7,64.6,49.5,52.3,47.6,42.1,85,57,32,30.25,30.11,9,3,15,0.00
2013-3-31,81.8,70.4,61.3,56.0,52.6,50.2,75,55,35,30.17,29.98,13,4,16,0.00
2013-4-1,85.3,73.4,63.5,64.8,60.2,55.4,86,65,43,30.02,29.92,14,5,19,0.00
2013-4-2,84.1,71.4,62.2,62.8,57.9,50.8,93,66,35,30.08,30.00,9,4,14,0.00
2013-4-3,84.5,71.6,63.0,67.0,61.8,57.0,92,73,46,30.08,29.95,12,4,16,0.99
2013-4-4,74.4,70.2,67.5,68.3,65.6,61.9,94,86,74,30.01,29.84,14,5,18,0.13
2013-4-5,76.2,67.6,57.3,66.2,61.3,54.3,91,81,55,29.98,29.79,13,5,16,0.14
2013-4-6,76.4,64.3,55.0,58.1,55.0,50.6,92,73,50,30.12,29.97,14,6,21,0.07
2013-4-7,80.6,68.9,59.4,61.5,58.3,55.2,93,71,45,30.14,30.03,9,4,15,0.00
2013-4-8,83.8,71.7,60.3,64.5,59.5,57.2,92,68,43,30.13,30.03,9,3,14,0.00
2013-4-9,83.6,72.9,63.7,66.8,60.8,54.5,93,68,44,30.15,30.05,12,4,17,0.00
2013-4-10,87.6,74.9,62.4,68.6,63.9,58.8,92,71,42,30.11,29.97,12,4,15,0.00
2013-4-11,88.8,78.1,70.5,71.0,69.1,67.0,92,75,51,29.99,29.80,13,6,17,0.00
2013-4-12,84.9,78.0,73.4,72.2,70.1,67.1,90,77,59,29.89,29.78,15,6,24,0.00
2013-4-13,89.1,76.1,68.7,69.7,65.7,57.8,88,71,45,29.96,29.85,8,3,12,0.00
2013-4-14,88.4,74.7,67.3,72.5,66.4,61.2,94,76,55,29.96,29.78,14,4,16,2.55
2013-4-15,91.4,76.3,65.8,66.7,63.3,61.1,90,67,42,30.05,29.87,12,3,15,0.00
2013-4-16,87.2,76.2,68.5,70.3,66.9,62.4,93,74,55,30.13,30.02,14,5,18,0.00
2013-4-17,83.1,74.1,67.3,69.4,65.5,62.8,94,76,52,30.12,30.01,13,4,17,0.00
2013-4-18,91.0,77.3,67.0,69.8,66.3,62.8,93,71,45,30.04,29.92,12,4,14,0.00
2013-4-19,91.1,78.8,72.1,73.6,69.8,66.3,91,75,46,29.99,29.86,13,6,21,0.21
2013-4-20,75.1,68.2,60.1,69.8,62.3,55.2,89,81,69,30.12,29.92,13,5,17,0.01
2013-4-21,78.4,68.5,61.3,70.4,64.5,55.8,94,87,73,30.11,29.98,9,4,14,3.00
2013-4-22,79.6,69.2,65.0,67.9,65.3,62.1,94,88,63,30.04,29.96,15,5,24,0.11
2013-4-23,81.0,70.6,63.2,65.1,60.8,55.1,93,74,43,30.09,29.97,14,6,18,0.00
2013-4-24,86.8,72.7,60.2,64.1,60.3,58.1,93,68,39,30.11,30.03,9,3,13,0.00
2013-4-25,88.7,75.4,63.4,66.0,61.5,56.6,91,65,37,30.16,30.06,8,2,12,0.00
2013-4-26,87.1,76.0,65.0,66.5,63.7,60.3,88,68,44,30.20,30.11,12,3,16,0.00
2013-4-27,84.2,74.4,66.4,68.6,64.3,60.8,92,73,47,30.18,30.06,12,4,15,0.01
2013-4-28,82.6,73.6,65.1,66.7,63.7,61.4,92,73,50,30.10,29.95,13,4,17,0.00
2013-4-29,86.8,75.2,66.3,70.0,63.7,57.3,92,70,42,29.98,29.85,12,4,15,0.61
2013-4-30,89.8,74.0,66.4,69.7,65.6,59.9,94,78,40,29.97,29.86,12,2,15,0.46
2013-5-1,78.4,71.5,68.0,71.8,68.0,64.9,94,89,73,29.98,29.90,12,2,13,0.60
2013-5-2,73.9,69.5,66.0,69.6,67.0,63.9,94,92,80,29.92,29.77,10,2,12,2.73
2013-5-3,79.0,71.6,67.3,68.9,66.7,64.4,95,85,66,29.79,29.62,16,5,27,0.01
2013-5-4,84.2,74.1,67.8,70.6,66.8,64.8,94,79,56,29.74,29.61,9,3,14,0.06
2013-5-5,78.7,69.9,61.7,66.0,52.4,41.9,91,58,31,29.88,29.69,15,6,19,0.01
2013-5-6,77.5,69.3,61.9,59.5,54.6,49.7,82,61,40,29.94,29.83,14,5,18,0.00
2013-5-7,79.3,68.3,57.0,58.4,54.8,52.0,87,64,44,30.16,29.90,10,4,15,0.00
2013-5-8,83.6,72.1,60.5,61.3,58.2,55.7,91,64,41,30.24,30.13,9,4,13,0.00
2013-5-9,87.0,74.2,62.6,64.7,60.0,53.5,90,65,33,30.26,30.17,8,2,13,0.00
2013-5-10,91.4,77.5,65.5,70.5,66.5,62.3,91,71,41,30.24,30.09,10,3,13,0.00
2013-5-11,90.0,78.0,69.4,71.7,67.9,63.5,91,72,50,30.16,30.05,12,4,20,0.01
2013-5-12,89.6,78.6,69.4,71.1,66.3,63.3,92,68,47,30.13,30.02,10,4,16,0.00
2013-5-13,83.1,74.1,65.5,66.2,58.9,48.8,86,62,34,30.22,30.08,13,4,17,0.00
2013-5-14,84.3,71.5,59.9,56.5,53.2,44.7,83,56,27,30.30,30.21,9,3,14,0.00
2013-5-15,85.7,73.6,60.6,62.9,57.2,52.4,91,59,35,30.31,30.18,9,3,20,0.00
2013-5-16,88.9,75.1,65.1,63.0,61.1,58.5,86,64,38,30.23,30.11,9,4,14,0.00
2013-5-17,89.6,76.9,65.8,67.8,63.8,60.7,87,66,41,30.20,30.12,9,3,16,0.00
2013-5-18,93.8,78.9,68.2,72.8,67.4,62.2,90,70,36,30.21,30.10,12,3,16,0.00
2013-5-19,91.6,76.7,69.8,72.0,69.6,65.8,91,79,49,30.18,30.08,13,3,17,0.70
2013-5-20,90.4,76.6,70.7,71.3,68.7,65.9,91,78,47,30.17,30.06,9,2,16,0.48
2013-5-21,84.3,73.6,69.2,72.6,68.9,66.8,94,86,65,30.13,30.03,8,2,12,0.17
2013-5-22,88.3,75.5,68.0,72.8,69.1,66.1,94,82,52,30.06,29.99,8,2,14,0.69
2013-5-23,92.8,78.6,69.8,73.5,69.0,66.1,94,75,45,30.07,29.99,17,3,18,0.01
2013-5-24,93.9,81.1,70.9,73.3,66.4,58.6,93,65,32,30.17,30.03,15,5,15,0.00
2013-5-25,85.5,77.4,69.4,68.6,63.1,57.6,88,63,44,30.27,30.15,18,6,18,0.00
2013-5-26,86.4,73.9,62.8,62.5,58.4,52.6,84,60,35,30.30,30.22,14,4,14,0.00
2013-5-27,86.0,75.8,65.8,65.0,61.9,59.3,86,64,42,30.27,30.18,14,5,14,0.00
2013-5-28,87.4,77.5,68.1,70.2,67.4,63.7,88,72,54,30.23,30.15,16,6,16,0.00
2013-5-29,86.0,76.9,71.1,73.7,70.3,67.7,91,81,59,30.22,30.13,21,6,21,0.28
2013-5-30,86.0,78.5,71.8,73.8,69.9,65.8,92,76,53,30.20,30.12,21,7,21,0.18
2013-5-31,86.0,78.2,71.2,73.8,69.4,67.0,89,75,58,30.18,30.11,16,7,16,0.05
2013-6-1,89.1,79.2,72.3,74.9,71.7,68.6,90,79,61,30.15,30.03,18,6,18,0.00
2013-6-2,93.9,79.6,73.6,75.4,72.6,70.0,94,81,48,30.09,29.94,18,4,18,1.10
2013-6-3,90.3,79.5,74.1,76.0,72.9,70.3,94,81,54,30.08,29.95,15,3,15,0.51
2013-6-4,88.0,77.4,72.3,73.1,71.0,68.5,92,81,56,30.12,30.00,15,4,15,0.30
2013-6-5,87.1,75.3,72.0,75.2,71.3,68.9,94,88,64,30.10,29.99,15,3,15,1.30
2013-6-6,79.7,74.9,72.3,75.2,71.9,67.8,95,91,73,30.00,29.73,22,8,22,2.85
2013-6-7,90.1,80.6,73.0,74.1,71.8,69.2,92,76,57,30.02,29.83,14,6,14,0.00
2013-6-8,90.9,77.7,70.5,74.6,71.4,67.4,93,82,57,30.16,30.02,21,3,21,1.31
2013-6-9,90.5,79.5,70.2,76.2,71.7,67.8,94,78,56,30.18,30.08,15,5,15,0.01
2013-6-10,94.8,80.4,74.3,76.4,72.8,69.5,92,79,49,30.17,30.08,14,4,14,0.69
2013-6-11,94.5,78.8,72.7,77.0,72.8,68.0,92,83,52,30.16,30.07,16,3,16,0.11
2013-6-12,96.3,82.4,71.1,76.5,71.2,66.3,93,72,41,30.15,30.05,14,4,14,0.00
2013-6-13,95.4,83.4,74.3,75.2,72.0,69.9,88,70,45,30.10,29.95,16,4,16,0.00
2013-6-14,92.8,83.5,75.7,73.9,71.2,66.3,88,68,43,30.00,29.90,15,6,17,0.00
2013-6-15,91.6,82.0,77.4,76.6,73.2,70.5,87,75,60,30.14,29.98,14,5,14,0.00
2013-6-16,89.6,81.7,77.4,77.2,73.8,71.2,85,77,59,30.16,30.09,14,5,14,0.00
2013-6-17,91.6,80.7,75.6,79.0,74.7,71.0,92,83,58,30.16,30.03,12,4,12,0.77
2013-6-18,94.8,81.4,72.3,75.6,72.4,69.5,92,76,47,30.13,30.01,15,4,15,0.36
2013-6-19,92.7,83.0,74.3,75.6,72.5,69.0,91,72,48,30.11,30.01,13,4,13,0.00
2013-6-20,94.5,80.4,73.0,75.7,72.0,68.4,92,77,45,30.16,30.06,18,3,18,0.22
2013-6-21,92.5,78.5,72.3,77.4,71.3,68.6,94,80,50,30.18,30.10,21,3,21,0.05
2013-6-22,94.1,81.2,72.1,76.3,70.8,66.4,92,73,43,30.18,30.11,12,3,12,0.01
2013-6-23,91.6,80.4,73.4,75.8,72.6,70.1,90,78,53,30.21,30.13,14,4,14,0.00
2013-6-24,92.1,82.1,73.8,76.3,72.4,70.3,91,74,52,30.25,30.14,14,5,14,0.00
2013-6-25,92.7,82.5,73.2,75.8,71.9,68.8,91,72,51,30.22,30.10,15,4,15,0.00
2013-6-26,93.6,81.0,75.6,76.0,72.2,68.3,91,76,51,30.14,30.06,18,5,18,0.00
2013-6-27,94.3,82.0,72.3,73.8,71.3,68.6,91,72,47,30.10,29.99,17,3,17,0.00
2013-6-28,91.9,80.3,74.5,75.2,72.0,67.7,87,77,54,30.04,29.90,39,6,39,0.04
2013-6-29,90.3,81.1,76.6,75.6,72.7,69.5,89,77,54,29.94,29.85,23,6,23,0.00
2013-6-30,90.3,77.7,72.5,75.8,72.3,67.7,91,84,57,29.95,29.87,25,6,25,0.33
2013-7-1,85.3,76.3,73.0,74.9,71.2,68.5,91,84,66,30.09,29.92,16,7,16,0.45
2013-7-2,84.0,76.4,73.0,76.0,72.0,70.3,93,87,75,30.16,30.04,13,4,13,0.22
2013-7-3,90.0,77.5,72.7,76.4,72.5,68.9,93,85,60,30.19,30.11,20,4,20,0.54
2013-7-4,90.9,78.4,70.2,76.1,71.8,65.3,93,81,56,30.21,30.13,17,5,17,0.70
2013-7-5,89.2,80.8,73.6,76.1,72.7,70.3,92,77,55,30.21,30.12,21,6,21,0.06
2013-7-6,89.6,81.7,73.6,75.1,72.5,69.7,91,75,55,30.18,30.10,22,7,22,0.00
2013-7-7,91.4,82.6,74.1,76.3,72.1,67.9,90,72,50,30.20,30.10,21,6,21,0.00
2013-7-8,91.4,83.0,75.2,76.3,72.7,70.2,91,72,52,30.22,30.13,18,5,18,0.00
2013-7-9,91.8,82.4,73.8,75.9,70.9,67.0,91,70,48,30.22,30.12,16,4,16,0.00
2013-7-10,91.4,81.7,73.8,74.7,71.5,69.0,90,72,50,30.14,30.03,12,4,12,0.00
2013-7-11,93.2,81.6,74.8,73.9,71.4,68.7,89,73,46,30.09,29.97,22,6,22,0.00
2013-7-12,89.6,80.1,74.7,74.8,72.5,70.4,89,78,57,30.00,29.94,14,4,14,0.12
2013-7-13,91.8,79.4,73.4,75.0,71.2,67.1,90,77,51,30.03,29.93,18,4,18,0.00
2013-7-14,90.5,77.6,71.8,74.7,71.5,69.0,92,82,57,30.10,29.97,15,5,16,0.01
2013-7-15,89.6,79.3,71.2,74.6,71.4,68.3,92,78,59,30.11,30.01,14,5,14,0.01
2013-7-16,89.1,77.7,73.8,75.8,72.0,70.0,91,83,59,30.17,30.08,21,4,21,0.84
2013-7-17,89.6,79.3,74.1,76.7,72.7,67.9,92,81,58,30.16,30.06,17,5,17,0.19
2013-7-18,87.3,78.8,72.7,75.5,71.3,68.9,90,79,59,30.10,30.03,21,4,21,0.01
2013-7-19,90.7,77.5,70.5,74.8,71.0,67.1,91,81,58,30.12,30.01,22,4,22,2.61
2013-7-20,92.7,78.6,72.1,77.7,72.0,69.4,92,81,54,30.08,29.98,19,3,19,0.02
2013-7-21,95.2,80.3,73.6,76.7,72.2,67.4,89,78,48,30.12,29.98,21,4,21,0.01
2013-7-22,93.2,79.5,74.5,76.9,72.4,70.4,89,80,52,30.13,30.04,17,4,17,0.30
2013-7-23,86.5,78.6,74.3,76.5,72.4,70.2,91,82,67,30.07,29.93,17,4,17,0.02
2013-7-24,88.0,81.4,75.7,76.6,73.5,69.1,90,78,57,29.98,29.85,14,6,14,0.00
2013-7-25,86.4,79.9,75.0,76.2,73.7,70.2,90,82,71,29.96,29.84,15,4,15,0.20
2013-7-26,94.1,82.7,75.2,76.9,73.9,71.4,92,76,50,29.98,29.91,8,2,9,0.09
2013-7-27,95.5,81.6,75.0,78.3,73.6,69.3,91,78,50,29.97,29.87,12,2,12,0.73
2013-7-28,93.6,78.7,71.6,77.3,72.0,67.9,91,81,50,30.04,29.91,20,3,20,2.14
2013-7-29,96.1,81.6,73.0,78.9,72.9,69.9,92,77,48,30.12,30.00,16,2,16,0.00
2013-7-30,96.1,84.1,75.5,77.3,73.9,70.2,91,73,46,30.16,30.05,14,4,14,0.00
2013-7-31,95.2,82.4,74.7,77.4,73.5,68.8,90,76,51,30.11,30.00,18,3,18,0.69
2013-8-1,95.0,80.1,74.3,77.8,72.3,68.5,90,78,46,30.05,29.93,20,3,20,0.14
2013-8-2,94.1,83.0,74.3,78.3,72.5,67.9,91,72,47,30.01,29.91,12,3,12,0.00
2013-8-3,93.6,80.8,75.6,77.1,72.9,70.6,89,78,49,30.06,29.97,21,4,21,0.53
2013-8-4,92.5,81.2,75.2,77.9,74.3,71.9,91,80,58,30.06,29.95,18,4,18,0.00
2013-8-5,93.9,82.2,75.9,78.6,74.4,69.9,89,78,53,29.99,29.87,10,4,10,0.04
2013-8-6,97.2,82.9,74.1,77.6,74.2,71.2,91,76,50,29.95,29.86,9,2,9,0.02
2013-8-7,92.5,83.7,76.8,77.8,74.6,73.3,89,75,55,29.95,29.88,12,4,12,0.00
2013-8-8,92.7,83.4,76.5,77.9,73.9,71.6,89,74,52,30.04,29.92,14,5,14,0.07
2013-8-9,94.3,83.1,75.7,77.0,72.9,69.6,89,73,48,30.05,29.96,16,4,16,0.00
2013-8-10,96.6,84.0,74.3,76.3,72.7,69.9,87,70,48,30.10,30.01,13,4,13,0.00
2013-8-11,98.2,84.4,75.9,77.4,73.3,69.3,89,71,41,30.13,30.03,10,3,10,0.00
2013-8-12,95.0,84.5,75.2,77.1,72.4,68.0,89,69,47,30.10,29.97,12,3,12,0.00
2013-8-13,97.5,85.7,75.7,75.4,71.8,66.4,88,66,38,30.03,29.89,9,4,9,0.00
2013-8-14,96.6,82.2,75.2,77.0,73.5,69.6,89,76,49,29.99,29.87,16,3,16,0.21
2013-8-15,94.8,82.8,74.8,76.0,73.1,68.0,90,74,44,30.01,29.89,10,3,10,0.00
2013-8-16,94.1,81.7,73.0,76.0,73.4,69.6,89,77,49,30.05,29.93,18,3,18,2.85
2013-8-17,96.1,82.0,74.5,78.7,74.4,71.4,91,79,52,30.06,29.95,14,3,14,0.05
2013-8-18,91.9,82.9,76.6,76.7,73.9,70.5,90,75,58,30.07,29.98,13,4,13,0.02
2013-8-19,95.0,82.6,76.1,78.5,74.0,71.3,90,76,52,30.06,29.94,18,3,18,0.00
2013-8-20,94.6,84.3,76.3,76.8,73.4,70.5,89,71,47,30.07,29.96,14,4,14,0.00
2013-8-21,92.1,81.2,75.0,77.6,73.9,70.2,88,79,57,30.08,30.00,14,4,14,0.30
2013-8-22,90.3,80.1,77.0,78.2,74.4,71.8,90,83,61,30.06,29.96,12,3,12,0.07
2013-8-23,92.3,80.6,76.3,78.7,74.2,69.9,90,82,57,30.00,29.92,13,3,13,0.17
2013-8-24,94.8,79.5,73.8,80.1,73.3,70.0,91,82,52,30.08,29.97,15,2,15,0.23
2013-8-25,87.8,78.7,74.5,77.3,73.1,70.2,92,83,65,30.12,30.05,12,3,12,0.46
2013-8-26,88.9,80.3,74.5,76.5,73.2,71.0,90,80,60,30.11,29.98,17,4,17,0.07
2013-8-27,90.5,81.3,74.1,74.2,69.7,65.3,89,69,47,30.04,29.96,12,4,12,0.00
2013-8-28,92.7,81.7,71.4,74.0,68.5,65.8,88,66,43,30.03,29.94,9,3,10,0.00
2013-8-29,95.4,83.2,73.4,74.0,70.3,66.7,89,67,42,30.00,29.88,9,3,9,0.00
2013-8-30,97.5,83.1,76.3,75.5,72.4,70.0,86,71,44,29.95,29.85,14,2,14,0.22
2013-8-31,93.9,81.7,73.8,75.6,72.0,68.8,89,74,48,29.94,29.83,13,4,13,0.20
2013-9-1,96.4,80.2,73.4,74.7,71.2,69.3,89,76,46,29.97,29.85,24,4,24,0.15
2013-9-2,93.9,80.5,73.0,75.6,71.8,69.6,89,76,48,29.98,29.88,18,3,18,0.02
2013-9-3,93.7,82.4,73.0,75.5,72.3,67.2,91,73,47,29.99,29.88,12,4,12,0.00
2013-9-4,96.8,82.4,75.6,77.7,72.2,68.4,86,73,46,30.06,29.94,13,3,13,0.00
2013-9-5,95.9,82.6,75.2,76.9,73.3,68.9,84,74,52,30.06,29.96,9,3,9,0.00
2013-9-6,95.4,79.5,71.2,80.2,72.8,67.5,91,81,50,30.02,29.93,22,3,22,1.33
2013-9-7,92.8,77.5,72.3,76.5,71.0,65.1,91,81,52,29.98,29.89,25,4,25,0.48
2013-9-8,91.4,80.8,73.0,73.9,70.0,66.5,84,70,52,29.94,29.84,13,4,13,0.00
2013-9-9,92.1,81.6,73.9,73.1,68.5,65.4,77,66,46,30.01,29.90,13,5,13,0.00
2013-9-10,91.6,81.7,74.8,72.4,68.5,64.1,75,65,45,30.06,29.96,16,5,16,0.00
2013-9-11,91.4,82.3,75.6,72.9,68.9,65.5,73,65,49,30.05,29.96,13,5,16,0.00
2013-9-12,93.6,81.0,74.7,74.7,67.5,61.6,71,64,50,29.99,29.85,14,3,14,0.00
2013-9-13,95.4,82.4,73.6,73.5,65.0,54.9,64,56,44,29.87,29.75,12,3,13,0.01
2013-9-14,96.1,83.6,75.6,74.3,64.2,50.9,61,52,42,29.94,29.79,14,3,14,0.00
2013-9-15,91.8,81.6,76.5,73.9,61.1,48.6,61,50,37,30.04,29.93,15,4,15,0.00
2013-9-16,92.8,81.0,72.9,73.2,58.9,41.3,60,47,30,30.04,29.95,13,4,13,0.00
2013-9-17,90.0,81.1,74.5,72.2,56.4,32.4,60,45,21,30.02,29.92,20,5,20,0.00
2013-9-18,87.4,78.9,74.8,70.8,47.6,21.1,59,36,14,30.00,29.93,17,5,17,0.41
2013-9-19,91.2,79.7,73.9,71.3,40.5,-32.5,58,33,1,30.01,29.94,17,4,17,0.03
2013-9-20,90.5,79.5,72.0,69.0,49.2,5.0,58,38,7,30.00,29.87,12,4,12,0.01
2013-9-21,93.9,81.0,71.1,70.6,39.7,-34.6,58,35,1,29.91,29.72,10,3,10,0.00
2013-9-22,90.1,78.8,74.1,71.5,8.4,-32.7,57,19,1,29.82,29.70,21,4,21,0.24
2013-9-23,87.6,76.4,72.3,65.5,-20.6,-33.8,48,5,1,29.92,29.80,9,3,9,1.26
2013-9-24,84.9,76.6,73.0,19.4,-30.3,-33.4,9,1,1,29.92,29.79,12,4,12,0.16
2013-9-25,82.6,77.0,73.2,4.6,-30.7,-33.4,5,1,1,29.81,29.73,14,6,14,0.01
2013-9-26,91.3,80.5,72.7,68.9,-8.3,-33.6,49,11,1,29.82,29.72,16,6,16,0.00
2013-9-27,81.7,74.4,70.2,-28.3,-32.5,-35.1,1,1,1,29.92,29.80,15,5,15,0.00
2013-9-28,83.8,76.6,71.4,39.0,-27.4,-34.4,22,2,1,29.97,29.87,15,5,15,0.01
2013-9-29,89.4,77.5,70.5,66.3,-5.2,-34.9,48,12,1,29.95,29.86,15,4,15,0.00
2013-9-30,91.8,78.2,70.9,67.7,-10.5,-34.7,47,9,1,29.98,29.87,13,3,13,0.00
2013-10-1,89.6,78.9,72.7,62.1,-15.3,-33.6,40,5,1,30.03,29.93,14,4,14,0.00
2013-10-2,88.0,77.9,70.9,61.4,-7.4,-34.7,42,10,1,30.02,29.95,12,5,12,0.00
2013-10-3,90.7,79.0,70.3,66.7,-6.9,-35.1,46,11,1,30.03,29.94,12,3,12,0.00
2013-10-4,93.4,79.8,72.3,68.2,-6.8,-33.8,45,10,1,30.03,29.94,14,3,14,0.00
2013-10-5,89.6,79.4,73.2,62.0,-16.6,-33.3,41,5,1,30.01,29.91,17,4,17,0.10
2013-10-6,93.6,79.9,73.9,67.1,-15.0,-32.8,43,6,1,29.93,29.80,16,3,16,0.04
2013-10-7,84.2,77.6,74.0,-26.7,-30.6,-32.8,1,1,1,29.84,29.70,12,4,12,0.47
2013-10-8,87.4,78.6,75.4,-24.7,-30.0,-32.0,1,1,1,29.90,29.72,20,5,20,0.05
2013-10-9,80.2,74.3,69.3,-29.0,-32.6,-35.7,1,1,1,29.98,29.87,16,7,16,0.00
2013-10-10,88.9,74.9,67.6,44.0,-27.1,-36.6,23,2,1,30.00,29.91,12,4,12,0.00
2013-10-11,87.8,76.4,66.6,50.3,-18.9,-37.3,28,5,1,30.00,29.88,12,2,12,0.00
2013-10-12,90.0,76.9,67.6,58.0,-15.7,-36.6,35,6,1,29.99,29.90,10,2,10,0.00
2013-10-13,88.0,76.8,68.7,59.0,-9.3,-36.0,38,10,1,30.02,29.92,12,3,12,0.00
2013-10-14,87.6,76.1,70.0,-24.7,-31.5,-35.2,1,1,1,29.99,29.87,14,5,14,0.00
2013-10-15,85.6,74.1,69.3,-25.8,-32.8,-35.7,1,1,1,29.95,29.83,9,3,9,0.00
2013-10-16,89.4,77.5,70.2,65.4,-14.3,-35.1,46,8,1,29.92,29.83,8,2,8,0.00
2013-10-17,92.8,79.5,71.2,49.2,-24.0,-34.5,24,2,1,29.93,29.83,7,2,7,0.00
2013-10-18,93.2,80.7,72.3,59.1,-19.0,-33.8,34,4,1,29.92,29.83,9,3,9,0.00
2013-10-19,91.0,80.9,74.3,36.0,-26.6,-32.6,15,1,1,29.90,29.80,12,4,12,0.00
2013-10-20,85.1,79.0,75.7,-26.1,-29.8,-31.7,1,1,1,29.91,29.80,12,4,12,0.01
2013-10-21,96.1,80.7,74.3,21.7,-28.6,-32.6,7,1,1,29.94,29.84,10,3,10,0.00
2013-10-22,91.0,80.0,73.9,-22.6,-29.2,-32.8,1,1,1,29.89,29.74,14,4,17,0.00
2013-10-23,83.1,75.2,68.5,56.1,2.2,-33.7,44,17,1,29.96,29.74,15,5,15,0.00
2013-10-24,68.5,63.0,62.2,28.6,-32.9,-39.9,23,3,1,30.10,29.95,15,4,15,0.00
2013-10-25,62.2,62.2,62.2,-39.9,-39.9,-39.9,1,1,1,30.17,30.08,4,4,4,0.00
2013-10-26,62.2,62.2,62.2,-39.9,-39.9,-39.9,1,1,1,30.15,30.03,4,4,4,0.00
2013-10-27,62.2,62.2,62.2,-39.9,-39.9,-39.9,1,1,1,30.08,29.99,4,4,4,0.00
2013-10-28,62.2,62.2,62.2,-39.9,-39.9,-39.9,1,1,1,30.13,30.03,4,4,4,0.00
2013-10-29,62.2,62.2,62.2,-39.9,-39.9,-39.9,1,1,1,30.20,30.07,4,4,4,0.00
2013-10-30,62.2,62.2,62.2,-39.9,-39.9,-39.9,1,1,1,30.22,30.10,4,4,4,0.00
2013-10-31,62.2,62.2,62.2,-39.9,-39.9,-39.9,1,1,1,30.13,29.98,4,4,4,0.00
2013-11-1,62.2,62.2,62.2,-39.9,-39.9,-39.9,1,1,1,30.00,29.85,4,4,4,0.00
2013-11-2,62.2,62.2,62.2,-39.9,-39.9,-39.9,1,1,1,29.96,29.80,4,4,4,0.00
2013-11-3,62.2,62.2,62.2,-39.9,-39.9,-39.9,1,1,1,30.10,29.94,4,4,4,0.00
2013-11-4,77.4,65.6,62.2,49.0,-35.4,-39.9,37,2,1,30.16,30.07,15,4,15,0.57
2013-11-5,82.6,73.2,67.8,-27.6,-33.3,-36.5,1,1,1,30.14,30.07,21,6,22,0.04
2013-11-6,79.9,73.1,69.4,-29.2,-33.3,-35.6,1,1,1,30.11,30.02,8,3,8,0.00
2013-11-7,82.4,72.8,67.8,-27.7,-33.5,-36.5,1,1,1,30.04,29.93,7,2,7,0.01
2013-11-8,68.0,68.0,68.0,-36.4,-36.4,-36.4,1,1,1,30.11,29.97,16,6,16,0.00
2013-11-9,68.0,68.0,68.0,-36.4,-36.4,-36.4,1,1,1,30.16,30.08,10,3,10,0.00
2013-11-10,68.0,68.0,68.0,-36.4,-36.4,-36.4,1,1,1,30.15,30.05,8,3,8,0.00
2013-11-11,68.0,68.0,68.0,-36.4,-36.4,-36.4,1,1,1,30.14,30.04,8,3,8,0.00
2013-11-12,68.0,68.0,68.0,-36.4,-36.4,-36.4,1,1,1,30.09,29.96,7,3,7,0.00
2013-11-13,68.0,68.0,68.0,-36.4,-36.4,-36.4,1,1,1,30.23,30.04,21,10,21,0.00